createdAt,value
2023-02-11T00:00:07.332Z,33.90
2023-02-11T00:02:36.034Z,29.87
2023-02-11T00:05:04.457Z,31.63
2023-02-11T00:07:33.047Z,31.83
2023-02-11T00:10:02.979Z,31.67
2023-02-11T00:12:31.828Z,28.57
2023-02-11T00:15:00.445Z,32.37
2023-02-11T00:17:29.019Z,29.90
2023-02-11T00:19:57.924Z,37.47
2023-02-11T00:22:26.270Z,31.90
2023-02-11T00:24:57.496Z,36.50
2023-02-11T00:27:27.182Z,34.77
2023-02-11T00:29:55.473Z,30.07
2023-02-11T00:32:24.036Z,29.53
2023-02-11T00:34:53.850Z,31.40
2023-02-11T00:37:22.246Z,33.43
2023-02-11T00:39:51.415Z,35.23
2023-02-11T00:42:20.201Z,31.70
2023-02-11T00:44:50.670Z,34.20
2023-02-11T00:47:19.454Z,34.90
2023-02-11T00:49:48.271Z,34.07
2023-02-11T00:52:17.386Z,32.37
2023-02-11T00:54:46.002Z,31.50
2023-02-11T00:57:14.686Z,33.80
2023-02-11T00:59:42.970Z,35.60
2023-02-11T01:02:12.974Z,29.23
2023-02-11T01:04:41.657Z,30.93
2023-02-11T01:07:10.252Z,32.57
2023-02-11T01:09:39.391Z,32.50
2023-02-11T01:12:08.542Z,30.80
2023-02-11T01:14:36.773Z,31.77
2023-02-11T01:17:06.414Z,29.43
2023-02-11T01:19:36.178Z,33.80
2023-02-11T01:22:04.944Z,31.57
2023-02-11T01:24:33.487Z,29.40
2023-02-11T01:27:01.742Z,33.13
2023-02-11T01:29:30.103Z,29.40
2023-02-11T01:31:58.732Z,31.60
2023-02-11T01:34:27.644Z,31.43
2023-02-11T01:37:00.367Z,28.97
2023-02-11T01:39:30.381Z,30.70
2023-02-11T01:41:59.144Z,31.77
2023-02-11T01:44:29.127Z,30.93
2023-02-11T01:46:57.330Z,27.53
2023-02-11T01:49:28.275Z,31.67
2023-02-11T01:52:00.664Z,31.50
2023-02-11T01:54:49.167Z,29.70
2023-02-11T01:57:25.200Z,31.83
2023-02-11T01:59:59.010Z,28.33
2023-02-11T02:02:30.503Z,28.97
2023-02-11T02:05:02.212Z,28.80
2023-02-11T02:07:35.369Z,28.47
2023-02-11T02:10:06.722Z,31.77
2023-02-11T02:12:37.640Z,30.80
2023-02-11T02:15:27.284Z,28.47
2023-02-11T02:18:12.026Z,30.83
2023-02-11T02:21:04.800Z,29.80
2023-02-11T02:24:08.611Z,31.07
2023-02-11T02:27:06.567Z,29.80
2023-02-11T02:29:59.360Z,29.37
2023-02-11T02:32:53.907Z,30.00
2023-02-11T02:35:29.700Z,31.27
2023-02-11T02:37:59.463Z,32.57
2023-02-11T02:40:30.186Z,28.83
2023-02-11T02:42:58.884Z,31.67
2023-02-11T02:45:27.987Z,29.57
2023-02-11T02:47:58.082Z,31.43
2023-02-11T02:50:30.368Z,30.77
2023-02-11T02:53:06.920Z,31.60
2023-02-11T02:55:46.156Z,29.53
2023-02-11T02:58:34.752Z,27.47
2023-02-11T03:01:05.894Z,29.80
2023-02-11T03:03:39.933Z,31.20
2023-02-11T03:06:10.579Z,26.63
2023-02-11T03:08:40.560Z,28.40
2023-02-11T03:11:10.576Z,32.37
2023-02-11T03:13:40.520Z,31.77
2023-02-11T03:16:10.878Z,27.20
2023-02-11T03:18:41.363Z,31.17
2023-02-11T03:21:10.204Z,30.60
2023-02-11T03:23:41.001Z,32.60
2023-02-11T03:26:11.210Z,29.30
2023-02-11T03:28:42.845Z,30.17
2023-02-11T03:31:13.069Z,30.37
2023-02-11T03:33:44.710Z,30.17
2023-02-11T03:36:15.571Z,29.77
2023-02-11T03:38:46.439Z,30.77
2023-02-11T03:41:15.000Z,29.93
2023-02-11T03:43:44.346Z,26.93
2023-02-11T03:46:12.737Z,27.97
2023-02-11T03:48:43.096Z,25.87
2023-02-11T03:51:12.305Z,29.17
2023-02-11T03:53:41.424Z,26.10
2023-02-11T03:56:11.631Z,28.33
2023-02-11T03:58:40.081Z,27.97
2023-02-11T04:01:09.923Z,26.80
2023-02-11T04:03:38.636Z,27.57
2023-02-11T04:06:09.691Z,25.47
2023-02-11T04:08:38.275Z,27.17
2023-02-11T04:11:06.655Z,28.40
2023-02-11T04:13:35.312Z,27.90
2023-02-11T04:16:03.587Z,27.40
2023-02-11T04:18:34.113Z,29.30
2023-02-11T04:21:02.818Z,31.03
2023-02-11T04:23:32.873Z,25.70
2023-02-11T04:26:01.590Z,31.10
2023-02-11T04:28:29.883Z,30.57
2023-02-11T04:30:58.177Z,31.10
2023-02-11T04:33:26.971Z,27.20
2023-02-11T04:35:55.587Z,27.00
2023-02-11T04:38:24.585Z,27.47
2023-02-11T04:40:54.303Z,26.73
2023-02-11T04:43:22.534Z,27.73
2023-02-11T04:45:51.455Z,26.60
2023-02-11T04:48:20.284Z,28.13
2023-02-11T04:50:48.935Z,26.53
2023-02-11T04:53:17.477Z,31.83
2023-02-11T04:55:49.107Z,28.70
2023-02-11T04:58:19.348Z,28.70
2023-02-11T05:00:47.585Z,32.90
2023-02-11T05:03:15.783Z,29.00
2023-02-11T05:05:44.254Z,31.20
2023-02-11T05:08:13.188Z,31.30
2023-02-11T05:10:41.536Z,28.97
2023-02-11T05:13:10.069Z,28.43
2023-02-11T05:15:40.188Z,28.50
2023-02-11T05:18:08.620Z,33.97
2023-02-11T05:20:39.647Z,31.70
2023-02-11T05:23:07.974Z,28.17
2023-02-11T05:25:37.320Z,32.03
2023-02-11T05:28:06.296Z,31.13
2023-02-11T05:30:34.911Z,31.07
2023-02-11T05:33:05.558Z,30.57
2023-02-11T05:35:33.867Z,30.00
2023-02-11T05:38:02.563Z,30.87
2023-02-11T05:40:31.621Z,33.73
2023-02-11T05:42:59.929Z,31.97
2023-02-11T05:45:28.559Z,32.97
2023-02-11T05:47:57.321Z,34.60
2023-02-11T05:50:27.300Z,32.07
2023-02-11T05:52:55.852Z,35.10
2023-02-11T05:55:24.659Z,31.07
2023-02-11T05:57:52.839Z,31.07
2023-02-11T06:00:21.415Z,30.87
2023-02-11T06:02:49.955Z,34.47
2023-02-11T06:05:19.424Z,37.13
2023-02-11T06:07:49.067Z,35.07
2023-02-11T06:10:17.283Z,33.37
2023-02-11T06:12:46.889Z,34.17
2023-02-11T06:15:15.581Z,36.03
2023-02-11T06:17:44.147Z,38.17
2023-02-11T06:20:15.631Z,38.00
2023-02-11T06:22:43.948Z,35.20
2023-02-11T06:25:13.970Z,36.43
2023-02-11T06:27:42.314Z,40.20
2023-02-11T06:30:11.659Z,37.93
2023-02-11T06:32:44.343Z,35.10
2023-02-11T06:35:14.044Z,37.10
2023-02-11T06:37:42.954Z,32.40
2023-02-11T06:40:11.927Z,38.10
2023-02-11T06:42:41.860Z,36.63
2023-02-11T06:45:11.351Z,33.63
2023-02-11T06:47:39.784Z,37.07
2023-02-11T06:50:10.081Z,36.73
2023-02-11T06:52:38.353Z,35.43
2023-02-11T06:55:07.180Z,41.17
2023-02-11T06:57:35.826Z,38.27
2023-02-11T07:00:06.196Z,39.90
2023-02-11T07:02:35.024Z,37.27
2023-02-11T07:05:03.401Z,36.37
2023-02-11T07:07:34.112Z,37.80
2023-02-11T07:10:04.243Z,40.60
2023-02-11T07:12:32.731Z,37.63
2023-02-11T07:15:01.169Z,38.13
2023-02-11T07:17:32.084Z,38.13
2023-02-11T07:20:00.824Z,38.97
2023-02-11T07:22:29.017Z,34.30
2023-02-11T07:24:57.394Z,35.03
2023-02-11T07:27:26.227Z,39.80
2023-02-11T07:29:56.020Z,37.80
2023-02-11T07:32:24.268Z,36.47
2023-02-11T07:34:54.167Z,41.33
2023-02-11T07:37:22.847Z,40.63
2023-02-11T07:39:51.096Z,40.13
2023-02-11T07:42:20.055Z,37.97
2023-02-11T07:44:50.435Z,39.53
2023-02-11T07:47:19.639Z,39.80
2023-02-11T07:49:48.125Z,36.93
2023-02-11T07:52:18.296Z,36.77
2023-02-11T07:54:46.705Z,39.43
2023-02-11T07:57:15.629Z,40.23
2023-02-11T07:59:43.893Z,36.50
2023-02-11T08:02:12.546Z,38.23
2023-02-11T08:04:40.960Z,35.50
2023-02-11T08:07:09.956Z,44.87
2023-02-11T08:09:40.003Z,39.17
2023-02-11T08:12:08.700Z,36.40
2023-02-11T08:14:37.113Z,36.93
2023-02-11T08:17:05.394Z,38.60
2023-02-11T08:19:35.334Z,35.33
2023-02-11T08:22:03.891Z,37.80
2023-02-11T08:24:32.490Z,35.50
2023-02-11T08:27:02.251Z,38.47
2023-02-11T08:29:31.109Z,34.60
2023-02-11T08:31:59.391Z,39.90
2023-02-11T08:34:28.330Z,36.83
2023-02-11T08:36:56.945Z,38.10
2023-02-11T08:39:25.920Z,37.27
2023-02-11T08:41:54.814Z,34.07
2023-02-11T08:44:26.888Z,37.23
2023-02-11T08:46:55.371Z,32.27
2023-02-11T08:49:23.795Z,36.10
2023-02-11T08:51:52.395Z,38.13
2023-02-11T08:54:20.686Z,38.90
2023-02-11T08:56:52.304Z,34.27
2023-02-11T08:59:21.095Z,36.37
2023-02-11T09:01:50.944Z,37.07
2023-02-11T09:04:19.551Z,31.20
2023-02-11T09:06:47.805Z,35.40
2023-02-11T09:09:16.836Z,36.37
2023-02-11T09:11:45.846Z,35.37
2023-02-11T09:14:18.338Z,40.10
2023-02-11T09:16:47.010Z,36.50
2023-02-11T09:19:17.361Z,36.53
2023-02-11T09:21:45.790Z,36.73
2023-02-11T09:24:14.548Z,40.73
2023-02-11T09:26:43.568Z,38.00
2023-02-11T09:29:12.168Z,37.17
2023-02-11T09:31:40.908Z,34.00
2023-02-11T09:34:09.900Z,36.43
2023-02-11T09:36:40.544Z,37.07
2023-02-11T09:39:09.787Z,35.37
2023-02-11T09:41:58.423Z,33.17
2023-02-11T09:44:27.890Z,39.37
2023-02-11T09:46:57.521Z,44.87
2023-02-11T09:49:30.571Z,39.20
2023-02-11T09:52:03.149Z,39.03
2023-02-11T09:54:35.517Z,41.00
2023-02-11T09:57:04.128Z,42.60
2023-02-11T09:59:32.849Z,39.83
2023-02-11T10:02:03.953Z,41.03
2023-02-11T10:04:46.538Z,41.97
2023-02-11T10:07:20.567Z,41.77
2023-02-11T10:09:55.973Z,43.50
2023-02-11T10:12:35.527Z,49.37
2023-02-11T10:15:30.193Z,43.73
2023-02-11T10:18:08.495Z,37.47
2023-02-11T10:20:38.597Z,45.77
2023-02-11T10:23:13.377Z,41.60
2023-02-11T10:25:45.528Z,40.00
2023-02-11T10:28:16.124Z,42.20
2023-02-11T10:30:45.471Z,41.97
2023-02-11T10:33:17.116Z,44.37
2023-02-11T10:35:45.927Z,46.93
2023-02-11T10:38:16.226Z,41.10
2023-02-11T10:40:44.935Z,44.73
2023-02-11T10:43:15.897Z,43.97
2023-02-11T10:45:45.578Z,42.97
2023-02-11T10:48:42.910Z,42.60
2023-02-11T10:51:19.631Z,43.60
2023-02-11T10:53:50.362Z,40.73
2023-02-11T10:56:25.019Z,42.57
2023-02-11T10:58:58.488Z,41.87
2023-02-11T11:01:40.098Z,42.30
2023-02-11T11:04:08.488Z,43.10
2023-02-11T11:06:36.944Z,43.87
2023-02-11T11:09:07.136Z,38.27
2023-02-11T11:11:35.953Z,36.00
2023-02-11T11:14:04.949Z,38.00
2023-02-11T11:16:33.686Z,38.30
2023-02-11T11:19:22.463Z,36.67
2023-02-11T11:21:51.410Z,37.13
2023-02-11T11:24:22.483Z,41.00
2023-02-11T11:26:52.056Z,35.70
2023-02-11T11:29:21.843Z,42.60
2023-02-11T11:31:52.576Z,36.07
2023-02-11T11:34:24.915Z,35.60
2023-02-11T11:36:53.562Z,37.33
2023-02-11T11:39:25.768Z,35.53
2023-02-11T11:41:56.209Z,37.20
2023-02-11T11:44:30.515Z,33.90
2023-02-11T11:47:20.820Z,30.83
2023-02-11T11:49:52.570Z,40.27
2023-02-11T11:52:24.572Z,35.10
2023-02-11T11:54:57.847Z,37.70
2023-02-11T11:57:28.858Z,37.47
2023-02-11T11:59:57.793Z,35.20
2023-02-11T12:03:01.711Z,34.90
2023-02-11T12:05:34.305Z,33.30
2023-02-11T12:08:09.628Z,32.90
2023-02-11T12:10:50.152Z,41.87
2023-02-11T12:13:25.795Z,32.30
2023-02-11T12:15:58.966Z,33.77
2023-02-11T12:18:38.864Z,37.60
2023-02-11T12:21:16.936Z,32.97
2023-02-11T12:23:53.442Z,31.43
2023-02-11T12:26:23.897Z,31.97
2023-02-11T12:29:03.752Z,33.53
2023-02-11T12:31:39.951Z,32.53
2023-02-11T12:34:31.469Z,32.60
2023-02-11T12:37:07.725Z,31.90
2023-02-11T12:39:42.440Z,30.43
2023-02-11T12:42:48.679Z,29.97
2023-02-11T12:45:27.525Z,35.50
2023-02-11T12:48:03.938Z,33.13
2023-02-11T12:50:36.578Z,32.83
2023-02-11T12:53:20.177Z,35.30
2023-02-11T12:55:50.019Z,35.73
2023-02-11T12:58:29.684Z,31.87
2023-02-11T13:01:06.972Z,33.27
2023-02-11T13:03:38.964Z,30.67
2023-02-11T13:06:09.647Z,33.17
2023-02-11T13:08:39.521Z,30.60
2023-02-11T13:11:14.331Z,32.07
2023-02-11T13:13:48.721Z,33.33
2023-02-11T13:16:21.977Z,33.90
2023-02-11T13:18:53.161Z,33.90
2023-02-11T13:21:33.993Z,34.17
2023-02-11T13:24:07.148Z,33.80
2023-02-11T13:26:38.878Z,32.50
2023-02-11T13:29:20.490Z,33.63
2023-02-11T13:31:55.970Z,35.30
2023-02-11T13:34:28.549Z,34.40
2023-02-11T13:36:58.468Z,34.20
2023-02-11T13:39:27.452Z,29.40
2023-02-11T13:42:03.780Z,29.00
2023-02-11T13:44:34.382Z,34.30
2023-02-11T13:47:04.768Z,30.63
2023-02-11T13:49:36.211Z,28.47
2023-02-11T13:52:06.745Z,29.37
2023-02-11T13:54:37.991Z,31.00
2023-02-11T13:57:37.467Z,30.70
2023-02-11T14:00:51.541Z,30.00
2023-02-11T14:03:52.194Z,29.07
2023-02-11T14:06:40.233Z,30.93
2023-02-11T14:09:39.213Z,33.97
2023-02-11T14:12:40.584Z,31.00
2023-02-11T14:15:24.383Z,34.63
2023-02-11T14:17:53.486Z,30.30
2023-02-11T14:20:37.950Z,32.43
2023-02-11T14:23:06.916Z,28.90
2023-02-11T14:25:35.496Z,34.60
2023-02-11T14:28:08.730Z,30.00
2023-02-11T14:30:48.176Z,35.00
2023-02-11T14:33:53.461Z,31.80
2023-02-11T14:36:51.967Z,31.60
2023-02-11T14:39:26.907Z,35.07
2023-02-11T14:41:55.806Z,30.90
2023-02-11T14:44:25.857Z,35.10
2023-02-11T14:46:55.130Z,30.40
2023-02-11T14:49:27.244Z,35.53
2023-02-11T14:51:58.881Z,32.93
2023-02-11T14:54:28.486Z,33.63
2023-02-11T14:57:11.368Z,35.03
2023-02-11T14:59:40.229Z,35.03
2023-02-11T15:02:23.052Z,33.80
2023-02-11T15:04:51.348Z,35.73
2023-02-11T15:07:22.093Z,33.53
2023-02-11T15:09:51.218Z,34.90
2023-02-11T15:12:26.641Z,34.27
2023-02-11T15:15:00.430Z,36.23
2023-02-11T15:17:36.623Z,32.33
2023-02-11T15:20:24.206Z,35.80
2023-02-11T15:22:58.258Z,35.83
2023-02-11T15:25:28.191Z,37.10
2023-02-11T15:27:58.215Z,36.50
2023-02-11T15:30:32.287Z,34.77
2023-02-11T15:33:03.214Z,33.07
2023-02-11T15:35:33.426Z,34.37
2023-02-11T15:38:03.486Z,34.13
2023-02-11T15:40:33.714Z,38.53
2023-02-11T15:43:03.438Z,36.93
2023-02-11T15:45:33.178Z,37.17
2023-02-11T15:48:07.058Z,40.60
2023-02-11T15:50:37.320Z,39.97
2023-02-11T15:53:17.589Z,38.27
2023-02-11T15:55:48.911Z,40.80
2023-02-11T15:58:20.593Z,35.57
2023-02-11T16:00:50.662Z,43.83
2023-02-11T16:03:22.228Z,40.67
2023-02-11T16:05:51.002Z,42.90
2023-02-11T16:08:24.721Z,41.73
2023-02-11T16:10:58.896Z,40.70
2023-02-11T16:13:28.354Z,45.37
2023-02-11T16:15:57.434Z,38.97
2023-02-11T16:18:39.691Z,47.07
2023-02-11T16:21:15.235Z,41.20
2023-02-11T16:23:45.943Z,44.40
2023-02-11T16:26:22.333Z,46.10
2023-02-11T16:28:50.775Z,41.67
2023-02-11T16:31:19.252Z,46.27
2023-02-11T16:33:48.048Z,47.87
2023-02-11T16:36:17.717Z,46.47
2023-02-11T16:38:48.027Z,47.87
2023-02-11T16:41:16.319Z,50.50
2023-02-11T16:43:45.222Z,56.03
2023-02-11T16:46:15.896Z,49.23
2023-02-11T16:48:45.127Z,51.77
2023-02-11T16:51:13.810Z,56.67
2023-02-11T16:53:42.672Z,55.70
2023-02-11T16:56:15.589Z,50.90
2023-02-11T16:58:44.509Z,53.70
2023-02-11T17:01:14.194Z,55.40
2023-02-11T17:03:43.905Z,54.33
2023-02-11T17:06:13.694Z,53.27
2023-02-11T17:08:44.539Z,55.17
2023-02-11T17:11:18.047Z,51.03
2023-02-11T17:13:46.922Z,59.63
2023-02-11T17:16:18.526Z,57.83
2023-02-11T17:18:46.970Z,55.23
2023-02-11T17:21:15.806Z,54.37
2023-02-11T17:23:49.288Z,57.13
2023-02-11T17:26:21.664Z,55.87
2023-02-11T17:28:50.635Z,52.47
2023-02-11T17:31:22.849Z,49.23
2023-02-11T17:33:51.789Z,55.83
2023-02-11T17:36:20.470Z,52.13
2023-02-11T17:38:51.377Z,49.80
2023-02-11T17:41:22.302Z,52.63
2023-02-11T17:43:50.965Z,53.70
2023-02-11T17:46:22.494Z,53.80
2023-02-11T17:48:52.101Z,49.00
2023-02-11T17:51:24.703Z,52.33
2023-02-11T17:53:54.091Z,51.13
2023-02-11T17:56:25.084Z,47.80
2023-02-11T17:58:53.355Z,51.70
2023-02-11T18:01:22.163Z,53.20
2023-02-11T18:03:50.748Z,51.17
2023-02-11T18:06:19.847Z,56.27
2023-02-11T18:08:48.444Z,52.10
2023-02-11T18:11:21.685Z,52.57
2023-02-11T18:13:54.870Z,60.87
2023-02-11T18:16:25.243Z,49.80
2023-02-11T18:18:54.157Z,53.77
2023-02-11T18:21:23.150Z,50.23
2023-02-11T18:23:51.733Z,51.83
2023-02-11T18:26:21.523Z,52.17
2023-02-11T18:28:52.661Z,47.33
2023-02-11T18:31:22.113Z,48.00
2023-02-11T18:33:50.522Z,50.13
2023-02-11T18:36:20.037Z,50.27
2023-02-11T18:38:48.532Z,43.70
2023-02-11T18:41:17.394Z,48.07
2023-02-11T18:43:46.714Z,62.53
2023-02-11T18:46:17.370Z,47.23
2023-02-11T18:48:46.306Z,56.57
2023-02-11T18:51:19.588Z,54.67
2023-02-11T18:53:47.874Z,52.30
2023-02-11T18:56:17.348Z,46.57
2023-02-11T18:58:46.102Z,50.23
2023-02-11T19:01:17.316Z,50.63
2023-02-11T19:03:46.454Z,45.80
2023-02-11T19:06:18.569Z,51.63
2023-02-11T19:08:47.425Z,47.33
2023-02-11T19:11:17.384Z,46.77
2023-02-11T19:13:49.284Z,42.67
2023-02-11T19:16:20.086Z,45.37
2023-02-11T19:18:48.935Z,46.40
2023-02-11T19:21:20.663Z,41.33
2023-02-11T19:23:49.091Z,40.50
2023-02-11T19:26:25.226Z,42.47
2023-02-11T19:29:04.139Z,43.77
2023-02-11T19:31:41.692Z,43.23
2023-02-11T19:34:35.251Z,46.20
2023-02-11T19:37:27.173Z,49.03
2023-02-11T19:40:10.133Z,52.23
2023-02-11T19:42:43.783Z,44.57
2023-02-11T19:45:35.692Z,48.07
2023-02-11T19:48:25.651Z,49.33
2023-02-11T19:54:59.597Z,44.00
2023-02-11T19:57:28.326Z,47.37
2023-02-11T20:00:01.224Z,44.80
2023-02-11T20:02:43.046Z,40.97
2023-02-11T20:05:43.592Z,39.53
2023-02-11T20:08:14.181Z,48.37
2023-02-11T20:19:50.466Z,39.30
2023-02-11T20:26:11.392Z,39.57
2023-02-11T20:29:02.049Z,49.40
2023-02-11T20:42:44.513Z,45.20
2023-02-11T20:45:13.052Z,41.67
2023-02-11T21:09:27.038Z,38.23
2023-02-11T21:12:01.321Z,38.63
2023-02-11T21:14:30.049Z,37.87
2023-02-11T21:16:58.496Z,38.30
2023-02-11T21:19:27.231Z,40.03
2023-02-11T21:22:00.685Z,43.47
2023-02-11T21:24:31.024Z,36.07
2023-02-11T21:26:59.723Z,42.93
2023-02-11T21:29:28.404Z,44.93
2023-02-11T21:31:56.745Z,43.70
2023-02-11T21:34:25.448Z,41.10
2023-02-11T21:36:53.788Z,39.73
2023-02-11T21:39:23.606Z,43.13
2023-02-11T21:41:53.297Z,40.07
2023-02-11T21:44:21.768Z,42.10
2023-02-11T21:46:50.251Z,41.43
2023-02-11T21:49:19.795Z,38.53
2023-02-11T21:51:48.243Z,44.87
2023-02-11T21:54:18.859Z,45.03
2023-02-11T21:56:51.699Z,39.57
2023-02-11T21:59:20.788Z,38.90
2023-02-11T22:01:50.462Z,39.70
2023-02-11T22:04:18.854Z,36.80
2023-02-11T22:06:48.113Z,35.33
2023-02-11T22:09:16.509Z,33.43
2023-02-11T22:11:45.001Z,33.40
2023-02-11T22:14:18.329Z,32.87
2023-02-11T22:16:47.213Z,34.97
2023-02-11T22:19:15.667Z,31.33
2023-02-11T22:21:44.822Z,30.47
2023-02-11T22:24:16.658Z,32.33
2023-02-11T22:26:45.076Z,32.03
2023-02-11T22:29:15.394Z,31.80
2023-02-11T22:31:44.185Z,28.67
2023-02-11T22:34:12.477Z,30.10
2023-02-11T22:36:42.232Z,25.17
2023-02-11T22:39:12.740Z,28.03
2023-02-11T22:41:41.829Z,29.23
2023-02-11T22:44:10.743Z,27.43
2023-02-11T22:46:41.107Z,23.77
2023-02-11T22:49:10.088Z,23.33
2023-02-11T22:51:38.874Z,24.50
2023-02-11T22:54:08.109Z,22.20
2023-02-11T22:56:36.927Z,22.67
2023-02-11T22:59:06.485Z,24.67
2023-02-11T23:01:35.092Z,26.63
2023-02-11T23:04:06.327Z,21.60
2023-02-11T23:06:34.606Z,20.23
2023-02-11T23:09:04.169Z,30.67
2023-02-11T23:11:32.873Z,21.33
2023-02-11T23:14:01.951Z,23.87
2023-02-11T23:16:32.984Z,18.83
2023-02-11T23:19:02.328Z,17.70
2023-02-11T23:21:33.347Z,23.47
2023-02-11T23:24:03.556Z,23.40
2023-02-11T23:26:32.647Z,24.97
2023-02-11T23:29:01.706Z,22.83
2023-02-11T23:31:34.225Z,21.00
2023-02-11T23:34:03.198Z,21.57
2023-02-11T23:36:33.683Z,23.17
2023-02-11T23:39:03.371Z,23.83
2023-02-11T23:41:32.256Z,22.30
2023-02-11T23:44:01.229Z,20.00
2023-02-11T23:46:30.564Z,29.03
2023-02-11T23:48:59.366Z,26.97
2023-02-11T23:51:28.470Z,28.23
2023-02-11T23:54:00.036Z,20.47
2023-02-11T23:56:29.175Z,25.20
2023-02-11T23:58:59.173Z,20.30
